sensor_id;sensor_type;location;lat;lon;timestamp;pressure;altitude;pressure_sealevel;temperature;humidity
24558;BME280;12726;49.148;8.582;2023-10-09T00:00:16;100957.03;;;12.70;100.00
24558;BME280;12726;49.148;8.582;2023-10-09T00:03:34;100947.88;;;12.71;100.00
24558;BME280;12726;49.148;8.582;2023-10-09T00:06:21;100950.09;;;12.80;100.00
24558;BME280;12726;49.148;8.582;2023-10-09T00:09:17;100953.63;;;12.81;99.61
24558;BME280;12726;49.148;8.582;2023-10-09T00:12:09;100954.28;;;12.76;99.47
24558;BME280;12726;49.148;8.582;2023-10-09T00:14:55;100948.91;;;12.70;99.10
24558;BME280;12726;49.148;8.582;2023-10-09T00:17:43;100946.00;;;12.65;99.38
24558;BME280;12726;49.148;8.582;2023-10-09T00:20:35;100944.56;;;12.62;99.57
24558;BME280;12726;49.148;8.582;2023-10-09T00:23:23;100947.28;;;12.62;99.80
24558;BME280;12726;49.148;8.582;2023-10-09T00:26:11;100945.78;;;12.66;99.94
24558;BME280;12726;49.148;8.582;2023-10-09T00:29:00;100947.03;;;12.70;99.67
24558;BME280;12726;49.148;8.582;2023-10-09T00:31:50;100947.84;;;12.77;99.26
24558;BME280;12726;49.148;8.582;2023-10-09T00:34:40;100941.97;;;12.87;98.84
24558;BME280;12726;49.148;8.582;2023-10-09T00:37:25;100942.97;;;12.99;98.29
24558;BME280;12726;49.148;8.582;2023-10-09T00:40:18;100936.63;;;13.25;96.42
24558;BME280;12726;49.148;8.582;2023-10-09T00:43:08;100934.00;;;13.43;94.77
24558;BME280;12726;49.148;8.582;2023-10-09T00:45:59;100932.00;;;13.63;93.09
24558;BME280;12726;49.148;8.582;2023-10-09T00:48:48;100931.72;;;13.71;92.07
24558;BME280;12726;49.148;8.582;2023-10-09T00:51:33;100933.38;;;13.72;91.60
24558;BME280;12726;49.148;8.582;2023-10-09T00:54:20;100933.16;;;13.74;91.71
24558;BME280;12726;49.148;8.582;2023-10-09T00:57:10;100924.63;;;13.77;91.68
24558;BME280;12726;49.148;8.582;2023-10-09T00:59:59;100926.88;;;13.80;91.10
24558;BME280;12726;49.148;8.582;2023-10-09T01:02:57;100915.75;;;13.88;91.08
24558;BME280;12726;49.148;8.582;2023-10-09T01:05:56;100905.69;;;13.95;90.66
24558;BME280;12726;49.148;8.582;2023-10-09T01:08:42;100917.09;;;14.04;90.46
24558;BME280;12726;49.148;8.582;2023-10-09T01:11:39;100913.47;;;14.10;89.99
24558;BME280;12726;49.148;8.582;2023-10-09T01:14:32;100916.19;;;14.10;89.62
24558;BME280;12726;49.148;8.582;2023-10-09T01:17:22;100905.97;;;14.12;89.70
24558;BME280;12726;49.148;8.582;2023-10-09T01:20:22;100900.72;;;14.17;89.18
24558;BME280;12726;49.148;8.582;2023-10-09T01:23:15;100899.31;;;14.08;89.19
24558;BME280;12726;49.148;8.582;2023-10-09T01:26:00;100891.44;;;14.06;89.42
24558;BME280;12726;49.148;8.582;2023-10-09T01:28:45;100894.16;;;14.06;89.70
24558;BME280;12726;49.148;8.582;2023-10-09T01:31:33;100895.63;;;14.02;89.80
24558;BME280;12726;49.148;8.582;2023-10-09T01:34:22;100890.84;;;14.04;89.80
24558;BME280;12726;49.148;8.582;2023-10-09T01:37:22;100885.84;;;14.01;89.88
24558;BME280;12726;49.148;8.582;2023-10-09T01:40:13;100890.28;;;13.96;90.09
24558;BME280;12726;49.148;8.582;2023-10-09T01:43:09;100885.31;;;13.93;90.28
24558;BME280;12726;49.148;8.582;2023-10-09T01:45:54;100887.16;;;13.99;90.32
24558;BME280;12726;49.148;8.582;2023-10-09T01:48:39;100881.66;;;14.05;90.01
24558;BME280;12726;49.148;8.582;2023-10-09T01:51:30;100883.69;;;14.10;89.77
24558;BME280;12726;49.148;8.582;2023-10-09T01:54:18;100883.56;;;14.05;90.09
24558;BME280;12726;49.148;8.582;2023-10-09T01:57:19;100884.59;;;14.04;90.25
24558;BME280;12726;49.148;8.582;2023-10-09T02:00:07;100883.97;;;14.02;90.57
24558;BME280;12726;49.148;8.582;2023-10-09T02:02:53;100870.28;;;13.97;90.85
24558;BME280;12726;49.148;8.582;2023-10-09T02:05:38;100867.66;;;13.90;91.10
24558;BME280;12726;49.148;8.582;2023-10-09T02:08:23;100870.22;;;13.85;91.48
24558;BME280;12726;49.148;8.582;2023-10-09T02:11:10;100863.19;;;13.78;91.79
24558;BME280;12726;49.148;8.582;2023-10-09T02:14:00;100877.16;;;13.75;92.13
24558;BME280;12726;49.148;8.582;2023-10-09T02:16:46;100881.13;;;13.72;92.58
24558;BME280;12726;49.148;8.582;2023-10-09T02:19:47;100877.44;;;13.66;92.69
24558;BME280;12726;49.148;8.582;2023-10-09T02:22:33;100868.72;;;13.64;93.10
24558;BME280;12726;49.148;8.582;2023-10-09T02:25:18;100878.94;;;13.62;93.39
24558;BME280;12726;49.148;8.582;2023-10-09T02:28:05;100883.53;;;13.62;93.31
24558;BME280;12726;49.148;8.582;2023-10-09T02:30:52;100876.44;;;13.61;93.54
24558;BME280;12726;49.148;8.582;2023-10-09T02:33:44;100875.63;;;13.60;93.62
24558;BME280;12726;49.148;8.582;2023-10-09T02:36:30;100872.31;;;13.58;93.55
24558;BME280;12726;49.148;8.582;2023-10-09T02:39:15;100875.00;;;13.58;93.71
24558;BME280;12726;49.148;8.582;2023-10-09T02:42:07;100863.41;;;13.51;93.84
24558;BME280;12726;49.148;8.582;2023-10-09T02:45:05;100865.06;;;13.52;93.98
24558;BME280;12726;49.148;8.582;2023-10-09T02:47:52;100859.50;;;13.47;94.08
24558;BME280;12726;49.148;8.582;2023-10-09T02:50:39;100860.13;;;13.49;94.13
24558;BME280;12726;49.148;8.582;2023-10-09T02:53:28;100861.38;;;13.47;94.02
24558;BME280;12726;49.148;8.582;2023-10-09T02:56:19;100856.19;;;13.45;94.28
24558;BME280;12726;49.148;8.582;2023-10-09T02:59:08;100847.03;;;13.46;94.35
24558;BME280;12726;49.148;8.582;2023-10-09T03:01:53;100855.13;;;13.46;94.05
24558;BME280;12726;49.148;8.582;2023-10-09T03:04:40;100851.22;;;13.42;94.44
24558;BME280;12726;49.148;8.582;2023-10-09T03:07:25;100855.19;;;13.40;94.61
24558;BME280;12726;49.148;8.582;2023-10-09T03:10:11;100849.56;;;13.41;94.56
24558;BME280;12726;49.148;8.582;2023-10-09T03:12:56;100856.41;;;13.44;94.90
24558;BME280;12726;49.148;8.582;2023-10-09T03:15:46;100850.63;;;13.40;94.63
24558;BME280;12726;49.148;8.582;2023-10-09T03:18:32;100854.19;;;13.34;94.72
24558;BME280;12726;49.148;8.582;2023-10-09T03:21:19;100853.59;;;13.32;95.04
24558;BME280;12726;49.148;8.582;2023-10-09T03:24:04;100852.97;;;13.30;95.04
24558;BME280;12726;49.148;8.582;2023-10-09T03:26:50;100852.81;;;13.25;95.21
24558;BME280;12726;49.148;8.582;2023-10-09T03:29:36;100848.44;;;13.24;95.54
24558;BME280;12726;49.148;8.582;2023-10-09T03:32:22;100854.88;;;13.23;95.52
24558;BME280;12726;49.148;8.582;2023-10-09T03:35:08;100853.84;;;13.24;95.18
24558;BME280;12726;49.148;8.582;2023-10-09T03:37:57;100854.00;;;13.29;94.41
24558;BME280;12726;49.148;8.582;2023-10-09T03:40:45;100846.78;;;13.23;94.33
24558;BME280;12726;49.148;8.582;2023-10-09T03:43:32;100845.56;;;13.19;94.38
24558;BME280;12726;49.148;8.582;2023-10-09T03:46:21;100848.09;;;13.14;94.49
24558;BME280;12726;49.148;8.582;2023-10-09T03:49:10;100858.94;;;13.07;94.54
24558;BME280;12726;49.148;8.582;2023-10-09T03:51:57;100856.66;;;13.04;94.66
24558;BME280;12726;49.148;8.582;2023-10-09T03:54:44;100860.22;;;12.98;94.79
24558;BME280;12726;49.148;8.582;2023-10-09T03:57:30;100876.50;;;12.91;95.07
24558;BME280;12726;49.148;8.582;2023-10-09T04:00:16;100861.16;;;12.85;95.59
24558;BME280;12726;49.148;8.582;2023-10-09T04:03:12;100876.53;;;12.85;96.13
24558;BME280;12726;49.148;8.582;2023-10-09T04:05:58;100873.00;;;12.84;96.50
24558;BME280;12726;49.148;8.582;2023-10-09T04:08:44;100864.69;;;12.79;96.66
24558;BME280;12726;49.148;8.582;2023-10-09T04:11:34;100867.22;;;12.74;97.04
24558;BME280;12726;49.148;8.582;2023-10-09T04:14:20;100868.91;;;12.69;97.58
24558;BME280;12726;49.148;8.582;2023-10-09T04:17:08;100864.56;;;12.61;97.95
24558;BME280;12726;49.148;8.582;2023-10-09T04:20:14;100872.50;;;12.56;98.50
24558;BME280;12726;49.148;8.582;2023-10-09T04:23:17;100867.72;;;12.51;99.09
24558;BME280;12726;49.148;8.582;2023-10-09T04:26:17;100870.66;;;12.50;99.22
24558;BME280;12726;49.148;8.582;2023-10-09T04:29:06;100862.75;;;12.48;99.28
24558;BME280;12726;49.148;8.582;2023-10-09T04:31:54;100870.66;;;12.50;98.88
24558;BME280;12726;49.148;8.582;2023-10-09T04:34:40;100859.22;;;12.48;98.75
24558;BME280;12726;49.148;8.582;2023-10-09T04:37:32;100851.34;;;12.46;98.71
24558;BME280;12726;49.148;8.582;2023-10-09T04:40:21;100855.06;;;12.45;98.27
24558;BME280;12726;49.148;8.582;2023-10-09T04:43:21;100854.03;;;12.46;98.37
24558;BME280;12726;49.148;8.582;2023-10-09T04:46:07;100849.84;;;12.50;98.01
24558;BME280;12726;49.148;8.582;2023-10-09T04:48:56;100845.50;;;12.56;97.73
24558;BME280;12726;49.148;8.582;2023-10-09T04:51:59;100836.09;;;12.59;97.87
24558;BME280;12726;49.148;8.582;2023-10-09T04:54:48;100835.28;;;12.58;98.12
24558;BME280;12726;49.148;8.582;2023-10-09T04:57:47;100837.97;;;12.58;98.18
24558;BME280;12726;49.148;8.582;2023-10-09T05:00:46;100837.75;;;12.66;98.45
24558;BME280;12726;49.148;8.582;2023-10-09T05:03:49;100835.25;;;12.71;98.15
24558;BME280;12726;49.148;8.582;2023-10-09T05:06:41;100827.31;;;12.76;98.08
24558;BME280;12726;49.148;8.582;2023-10-09T05:09:38;100835.38;;;12.83;98.09
24558;BME280;12726;49.148;8.582;2023-10-09T05:12:39;100842.00;;;12.87;98.21
24558;BME280;12726;49.148;8.582;2023-10-09T05:15:30;100839.44;;;12.99;97.77
24558;BME280;12726;49.148;8.582;2023-10-09T05:18:18;100849.59;;;13.03;97.38
24558;BME280;12726;49.148;8.582;2023-10-09T05:21:12;100850.00;;;13.07;97.47
24558;BME280;12726;49.148;8.582;2023-10-09T05:24:17;100845.69;;;13.30;96.11
24558;BME280;12726;49.148;8.582;2023-10-09T05:27:03;100837.09;;;13.40;95.04
24558;BME280;12726;49.148;8.582;2023-10-09T05:30:01;100840.41;;;13.42;94.61
24558;BME280;12726;49.148;8.582;2023-10-09T05:32:57;100853.75;;;13.37;95.04
24558;BME280;12726;49.148;8.582;2023-10-09T05:36:06;100858.06;;;13.45;94.16
24558;BME280;12726;49.148;8.582;2023-10-09T05:39:16;100852.84;;;13.50;93.87
24558;BME280;12726;49.148;8.582;2023-10-09T05:42:02;100866.38;;;13.43;94.07
24558;BME280;12726;49.148;8.582;2023-10-09T05:44:53;100867.88;;;13.39;94.77
24558;BME280;12726;49.148;8.582;2023-10-09T05:48:17;100871.78;;;13.50;94.48
24558;BME280;12726;49.148;8.582;2023-10-09T05:51:21;100880.97;;;13.42;94.50
24558;BME280;12726;49.148;8.582;2023-10-09T05:54:25;100883.69;;;13.42;94.88
24558;BME280;12726;49.148;8.582;2023-10-09T05:57:28;100882.59;;;13.50;94.70
24558;BME280;12726;49.148;8.582;2023-10-09T06:00:31;100882.97;;;13.53;94.52
24558;BME280;12726;49.148;8.582;2023-10-09T06:03:48;100880.53;;;13.45;94.96
24558;BME280;12726;49.148;8.582;2023-10-09T06:06:38;100889.53;;;13.39;95.55
24558;BME280;12726;49.148;8.582;2023-10-09T06:09:30;100895.75;;;13.40;95.63
24558;BME280;12726;49.148;8.582;2023-10-09T06:12:31;100901.16;;;13.40;95.98
24558;BME280;12726;49.148;8.582;2023-10-09T06:15:28;100901.78;;;13.42;95.72
24558;BME280;12726;49.148;8.582;2023-10-09T06:18:35;100897.75;;;13.51;95.46
24558;BME280;12726;49.148;8.582;2023-10-09T06:21:20;100900.69;;;13.49;95.76
24558;BME280;12726;49.148;8.582;2023-10-09T06:24:44;100904.38;;;13.55;95.91
24558;BME280;12726;49.148;8.582;2023-10-09T06:27:38;100906.63;;;13.58;95.86
24558;BME280;12726;49.148;8.582;2023-10-09T06:30:39;100911.34;;;13.69;95.15
24558;BME280;12726;49.148;8.582;2023-10-09T06:33:28;100906.72;;;13.76;94.75
24558;BME280;12726;49.148;8.582;2023-10-09T06:36:13;100893.34;;;13.81;94.64
24558;BME280;12726;49.148;8.582;2023-10-09T06:39:02;100901.56;;;13.93;93.75
24558;BME280;12726;49.148;8.582;2023-10-09T06:42:01;100894.75;;;14.08;92.97
24558;BME280;12726;49.148;8.582;2023-10-09T06:45:13;100899.25;;;14.15;92.02
24558;BME280;12726;49.148;8.582;2023-10-09T06:48:02;100900.78;;;14.29;91.35
24558;BME280;12726;49.148;8.582;2023-10-09T06:50:53;100905.91;;;14.37;90.61
24558;BME280;12726;49.148;8.582;2023-10-09T06:53:47;100906.03;;;14.48;89.87
24558;BME280;12726;49.148;8.582;2023-10-09T06:56:48;100904.66;;;14.58;89.43
24558;BME280;12726;49.148;8.582;2023-10-09T06:59:47;100893.66;;;14.71;88.32
24558;BME280;12726;49.148;8.582;2023-10-09T07:02:51;100904.66;;;14.76;87.96
24558;BME280;12726;49.148;8.582;2023-10-09T07:05:38;100906.81;;;14.85;87.40
24558;BME280;12726;49.148;8.582;2023-10-09T07:08:44;100901.56;;;14.91;87.00
24558;BME280;12726;49.148;8.582;2023-10-09T07:11:49;100900.75;;;15.02;86.49
24558;BME280;12726;49.148;8.582;2023-10-09T07:14:48;100902.66;;;15.01;86.32
24558;BME280;12726;49.148;8.582;2023-10-09T07:18:06;100890.78;;;15.14;85.45
24558;BME280;12726;49.148;8.582;2023-10-09T07:21:05;100894.47;;;15.19;84.96
24558;BME280;12726;49.148;8.582;2023-10-09T07:23:55;100889.88;;;15.20;85.34
24558;BME280;12726;49.148;8.582;2023-10-09T07:26:43;100889.53;;;15.28;84.94
24558;BME280;12726;49.148;8.582;2023-10-09T07:29:36;100895.00;;;15.40;83.56
24558;BME280;12726;49.148;8.582;2023-10-09T07:32:31;100897.97;;;15.50;83.86
24558;BME280;12726;49.148;8.582;2023-10-09T07:35:17;100900.66;;;15.50;83.91
24558;BME280;12726;49.148;8.582;2023-10-09T07:38:24;100905.69;;;15.64;83.09
24558;BME280;12726;49.148;8.582;2023-10-09T07:41:12;100905.13;;;15.74;82.19
24558;BME280;12726;49.148;8.582;2023-10-09T07:44:11;100905.00;;;15.81;81.88
24558;BME280;12726;49.148;8.582;2023-10-09T07:47:18;100918.84;;;16.02;80.83
24558;BME280;12726;49.148;8.582;2023-10-09T07:50:35;100916.38;;;16.13;79.94
24558;BME280;12726;49.148;8.582;2023-10-09T07:53:26;100913.53;;;16.19;79.50
24558;BME280;12726;49.148;8.582;2023-10-09T07:56:13;100922.50;;;16.31;78.91
24558;BME280;12726;49.148;8.582;2023-10-09T07:59:05;100916.34;;;16.36;79.58
24558;BME280;12726;49.148;8.582;2023-10-09T08:01:54;100918.25;;;16.47;78.48
24558;BME280;12726;49.148;8.582;2023-10-09T08:04:43;100912.06;;;16.52;78.84
24558;BME280;12726;49.148;8.582;2023-10-09T08:07:33;100918.84;;;16.61;77.82
24558;BME280;12726;49.148;8.582;2023-10-09T08:10:22;100914.91;;;16.68;78.40
24558;BME280;12726;49.148;8.582;2023-10-09T08:13:30;100931.19;;;16.80;77.23
24558;BME280;12726;49.148;8.582;2023-10-09T08:16:33;100934.38;;;16.89;77.06
24558;BME280;12726;49.148;8.582;2023-10-09T08:19:21;100922.75;;;16.93;77.61
24558;BME280;12726;49.148;8.582;2023-10-09T08:22:17;100922.97;;;17.03;75.33
24558;BME280;12726;49.148;8.582;2023-10-09T08:25:23;100921.84;;;17.16;75.34
24558;BME280;12726;49.148;8.582;2023-10-09T08:28:12;100920.47;;;17.30;74.07
24558;BME280;12726;49.148;8.582;2023-10-09T08:31:18;100926.59;;;17.37;73.97
24558;BME280;12726;49.148;8.582;2023-10-09T08:34:28;100924.16;;;17.52;73.51
24558;BME280;12726;49.148;8.582;2023-10-09T08:37:19;100924.81;;;17.59;73.93
24558;BME280;12726;49.148;8.582;2023-10-09T08:40:10;100941.69;;;17.73;73.30
24558;BME280;12726;49.148;8.582;2023-10-09T08:43:08;100941.28;;;17.81;72.29
24558;BME280;12726;49.148;8.582;2023-10-09T08:45:55;100943.69;;;17.94;72.43
24558;BME280;12726;49.148;8.582;2023-10-09T08:48:45;100947.78;;;18.14;71.56
24558;BME280;12726;49.148;8.582;2023-10-09T08:51:31;100934.63;;;18.27;70.61
24558;BME280;12726;49.148;8.582;2023-10-09T08:54:18;100933.53;;;18.45;69.97
24558;BME280;12726;49.148;8.582;2023-10-09T08:57:03;100935.56;;;18.55;69.98
24558;BME280;12726;49.148;8.582;2023-10-09T08:59:54;100931.94;;;18.66;70.13
24558;BME280;12726;49.148;8.582;2023-10-09T09:02:40;100936.81;;;18.86;68.04
24558;BME280;12726;49.148;8.582;2023-10-09T09:05:27;100938.72;;;19.07;68.52
24558;BME280;12726;49.148;8.582;2023-10-09T09:08:23;100931.91;;;19.31;66.10
24558;BME280;12726;49.148;8.582;2023-10-09T09:11:11;100937.28;;;19.48;66.09
24558;BME280;12726;49.148;8.582;2023-10-09T09:14:02;100940.00;;;19.75;64.53
24558;BME280;12726;49.148;8.582;2023-10-09T09:16:50;100942.00;;;19.89;63.74
24558;BME280;12726;49.148;8.582;2023-10-09T09:19:36;100939.94;;;20.02;62.92
24558;BME280;12726;49.148;8.582;2023-10-09T09:22:21;100939.03;;;19.91;63.95
24558;BME280;12726;49.148;8.582;2023-10-09T09:25:07;100949.69;;;19.92;63.54
24558;BME280;12726;49.148;8.582;2023-10-09T09:27:53;100950.16;;;19.84;64.31
24558;BME280;12726;49.148;8.582;2023-10-09T09:30:43;100959.84;;;19.97;63.30
24558;BME280;12726;49.148;8.582;2023-10-09T09:33:35;100945.75;;;20.10;63.50
24558;BME280;12726;49.148;8.582;2023-10-09T09:36:23;100944.75;;;20.26;63.06
24558;BME280;12726;49.148;8.582;2023-10-09T09:39:10;100940.59;;;20.61;61.97
24558;BME280;12726;49.148;8.582;2023-10-09T09:42:03;100938.84;;;20.97;61.33
24558;BME280;12726;49.148;8.582;2023-10-09T09:44:51;100944.72;;;21.21;59.66
24558;BME280;12726;49.148;8.582;2023-10-09T09:47:37;100942.28;;;21.39;59.39
24558;BME280;12726;49.148;8.582;2023-10-09T09:50:24;100943.41;;;21.38;59.40
24558;BME280;12726;49.148;8.582;2023-10-09T09:53:10;100929.94;;;21.27;59.32
24558;BME280;12726;49.148;8.582;2023-10-09T09:56:00;100937.31;;;21.21;59.37
24558;BME280;12726;49.148;8.582;2023-10-09T09:58:50;100932.06;;;21.09;60.57
24558;BME280;12726;49.148;8.582;2023-10-09T10:01:38;100939.69;;;20.97;60.22
24558;BME280;12726;49.148;8.582;2023-10-09T10:04:27;100933.38;;;20.92;60.14
24558;BME280;12726;49.148;8.582;2023-10-09T10:07:15;100932.22;;;20.78;60.70
24558;BME280;12726;49.148;8.582;2023-10-09T10:10:34;100930.03;;;20.75;60.63
24558;BME280;12726;49.148;8.582;2023-10-09T10:13:54;100930.25;;;20.68;61.20
24558;BME280;12726;49.148;8.582;2023-10-09T10:17:01;100933.28;;;20.71;61.33
24558;BME280;12726;49.148;8.582;2023-10-09T10:20:01;100925.38;;;20.80;61.07
24558;BME280;12726;49.148;8.582;2023-10-09T10:23:18;100925.19;;;21.02;60.91
24558;BME280;12726;49.148;8.582;2023-10-09T10:26:16;100925.31;;;21.47;58.92
24558;BME280;12726;49.148;8.582;2023-10-09T10:29:15;100931.66;;;21.83;58.58
24558;BME280;12726;49.148;8.582;2023-10-09T10:32:07;100933.22;;;22.45;57.67
24558;BME280;12726;49.148;8.582;2023-10-09T10:34:53;100921.88;;;22.82;55.73
24558;BME280;12726;49.148;8.582;2023-10-09T10:37:41;100924.59;;;22.92;56.16
24558;BME280;12726;49.148;8.582;2023-10-09T10:40:35;100926.25;;;22.88;54.81
24558;BME280;12726;49.148;8.582;2023-10-09T10:43:24;100938.16;;;22.53;56.94
24558;BME280;12726;49.148;8.582;2023-10-09T10:46:18;100933.03;;;22.16;57.60
24558;BME280;12726;49.148;8.582;2023-10-09T10:49:14;100925.88;;;21.90;58.54
24558;BME280;12726;49.148;8.582;2023-10-09T10:52:00;100940.16;;;21.72;59.09
24558;BME280;12726;49.148;8.582;2023-10-09T10:55:07;100935.44;;;21.47;60.21
24558;BME280;12726;49.148;8.582;2023-10-09T10:58:02;100928.31;;;21.36;60.76
24558;BME280;12726;49.148;8.582;2023-10-09T11:00:54;100928.84;;;21.33;61.77
24558;BME280;12726;49.148;8.582;2023-10-09T11:03:56;100932.41;;;21.33;61.16
24558;BME280;12726;49.148;8.582;2023-10-09T11:06:40;100929.72;;;21.43;60.26
24558;BME280;12726;49.148;8.582;2023-10-09T11:09:27;100925.06;;;21.49;60.75
24558;BME280;12726;49.148;8.582;2023-10-09T11:12:20;100930.78;;;21.47;60.95
24558;BME280;12726;49.148;8.582;2023-10-09T11:15:09;100925.63;;;21.51;61.07
24558;BME280;12726;49.148;8.582;2023-10-09T11:18:15;100921.22;;;21.60;60.88
24558;BME280;12726;49.148;8.582;2023-10-09T11:21:07;100917.69;;;21.60;61.50
24558;BME280;12726;49.148;8.582;2023-10-09T11:24:16;100922.06;;;21.66;62.61
24558;BME280;12726;49.148;8.582;2023-10-09T11:27:10;100940.69;;;21.64;61.31
24558;BME280;12726;49.148;8.582;2023-10-09T11:30:03;100938.22;;;21.57;61.63
24558;BME280;12726;49.148;8.582;2023-10-09T11:33:07;100936.59;;;21.71;61.77
24558;BME280;12726;49.148;8.582;2023-10-09T11:35:58;100928.94;;;21.99;60.49
24558;BME280;12726;49.148;8.582;2023-10-09T11:38:43;100915.97;;;22.40;60.20
24558;BME280;12726;49.148;8.582;2023-10-09T11:41:29;100907.09;;;23.27;56.89
24558;BME280;12726;49.148;8.582;2023-10-09T11:44:34;100883.91;;;24.59;53.49
24558;BME280;12726;49.148;8.582;2023-10-09T11:47:20;100887.69;;;25.81;49.07
24558;BME280;12726;49.148;8.582;2023-10-09T11:50:18;100869.63;;;26.62;46.44
24558;BME280;12726;49.148;8.582;2023-10-09T11:53:06;100862.91;;;27.40;44.75
24558;BME280;12726;49.148;8.582;2023-10-09T11:56:01;100851.38;;;28.22;42.16
24558;BME280;12726;49.148;8.582;2023-10-09T11:58:47;100849.84;;;28.47;41.79
24558;BME280;12726;49.148;8.582;2023-10-09T12:01:34;100847.09;;;27.54;42.24
24558;BME280;12726;49.148;8.582;2023-10-09T12:04:21;100849.97;;;26.91;43.35
24558;BME280;12726;49.148;8.582;2023-10-09T12:07:15;100861.91;;;26.04;43.96
24558;BME280;12726;49.148;8.582;2023-10-09T12:10:00;100855.41;;;25.49;45.88
24558;BME280;12726;49.148;8.582;2023-10-09T12:12:50;100849.09;;;25.11;46.26
24558;BME280;12726;49.148;8.582;2023-10-09T12:15:35;100833.34;;;24.74;47.65
24558;BME280;12726;49.148;8.582;2023-10-09T12:18:23;100834.69;;;24.34;48.00
24558;BME280;12726;49.148;8.582;2023-10-09T12:21:08;100819.72;;;24.21;48.45
24558;BME280;12726;49.148;8.582;2023-10-09T12:24:00;100825.94;;;24.03;48.17
24558;BME280;12726;49.148;8.582;2023-10-09T12:26:52;100829.28;;;24.00;47.92
24558;BME280;12726;49.148;8.582;2023-10-09T12:29:38;100824.19;;;24.12;47.87
24558;BME280;12726;49.148;8.582;2023-10-09T12:32:28;100817.59;;;24.37;46.02
24558;BME280;12726;49.148;8.582;2023-10-09T12:35:13;100816.91;;;24.69;45.40
24558;BME280;12726;49.148;8.582;2023-10-09T12:38:01;100810.66;;;24.82;43.32
24558;BME280;12726;49.148;8.582;2023-10-09T12:40:48;100813.13;;;25.02;42.91
24558;BME280;12726;49.148;8.582;2023-10-09T12:43:37;100805.38;;;25.04;42.99
24558;BME280;12726;49.148;8.582;2023-10-09T12:46:22;100805.84;;;25.44;42.02
24558;BME280;12726;49.148;8.582;2023-10-09T12:49:09;100804.78;;;25.58;41.76
24558;BME280;12726;49.148;8.582;2023-10-09T12:51:55;100811.47;;;25.71;41.29
24558;BME280;12726;49.148;8.582;2023-10-09T12:54:42;100812.00;;;25.87;41.96
24558;BME280;12726;49.148;8.582;2023-10-09T12:57:31;100811.63;;;26.07;42.09
24558;BME280;12726;49.148;8.582;2023-10-09T13:00:16;100809.47;;;26.18;41.04
24558;BME280;12726;49.148;8.582;2023-10-09T13:03:09;100812.53;;;26.16;41.33
24558;BME280;12726;49.148;8.582;2023-10-09T13:06:01;100823.56;;;26.16;41.33
24558;BME280;12726;49.148;8.582;2023-10-09T13:08:51;100820.81;;;26.16;41.46
24558;BME280;12726;49.148;8.582;2023-10-09T13:11:36;100813.34;;;26.17;40.65
24558;BME280;12726;49.148;8.582;2023-10-09T13:14:25;100812.88;;;26.28;40.80
24558;BME280;12726;49.148;8.582;2023-10-09T13:17:11;100802.72;;;26.24;39.85
24558;BME280;12726;49.148;8.582;2023-10-09T13:19:57;100810.00;;;26.20;38.25
24558;BME280;12726;49.148;8.582;2023-10-09T13:22:43;100803.34;;;25.93;38.93
24558;BME280;12726;49.148;8.582;2023-10-09T13:25:28;100804.97;;;26.08;38.48
24558;BME280;12726;49.148;8.582;2023-10-09T13:28:23;100781.88;;;25.90;38.30
24558;BME280;12726;49.148;8.582;2023-10-09T13:31:09;100784.59;;;25.63;38.41
24558;BME280;12726;49.148;8.582;2023-10-09T13:33:57;100788.41;;;25.48;38.13
24558;BME280;12726;49.148;8.582;2023-10-09T13:36:43;100785.22;;;25.41;40.13
24558;BME280;12726;49.148;8.582;2023-10-09T13:39:33;100794.09;;;25.38;38.86
24558;BME280;12726;49.148;8.582;2023-10-09T13:42:23;100788.63;;;25.19;39.87
24558;BME280;12726;49.148;8.582;2023-10-09T13:45:10;100780.00;;;25.07;39.97
24558;BME280;12726;49.148;8.582;2023-10-09T13:48:01;100769.03;;;24.83;41.19
24558;BME280;12726;49.148;8.582;2023-10-09T13:50:51;100765.72;;;24.86;41.03
24558;BME280;12726;49.148;8.582;2023-10-09T13:53:42;100770.34;;;24.91;40.94
24558;BME280;12726;49.148;8.582;2023-10-09T13:56:29;100755.66;;;24.95;41.40
24558;BME280;12726;49.148;8.582;2023-10-09T13:59:15;100764.66;;;24.82;42.31
24558;BME280;12726;49.148;8.582;2023-10-09T14:02:04;100758.75;;;24.89;42.64
24558;BME280;12726;49.148;8.582;2023-10-09T14:04:54;100748.56;;;24.89;42.27
24558;BME280;12726;49.148;8.582;2023-10-09T14:07:41;100753.53;;;24.92;39.74
24558;BME280;12726;49.148;8.582;2023-10-09T14:10:26;100746.91;;;24.93;39.16
24558;BME280;12726;49.148;8.582;2023-10-09T14:13:14;100747.75;;;24.89;40.18
24558;BME280;12726;49.148;8.582;2023-10-09T14:16:01;100750.22;;;24.72;40.62
24558;BME280;12726;49.148;8.582;2023-10-09T14:18:47;100743.50;;;24.59;41.99
24558;BME280;12726;49.148;8.582;2023-10-09T14:21:33;100744.22;;;24.51;41.59
24558;BME280;12726;49.148;8.582;2023-10-09T14:24:21;100756.25;;;24.55;41.17
24558;BME280;12726;49.148;8.582;2023-10-09T14:27:15;100754.91;;;24.71;41.33
24558;BME280;12726;49.148;8.582;2023-10-09T14:30:02;100759.66;;;24.66;41.72
24558;BME280;12726;49.148;8.582;2023-10-09T14:32:56;100747.31;;;24.63;42.13
24558;BME280;12726;49.148;8.582;2023-10-09T14:35:46;100744.13;;;24.75;41.47
24558;BME280;12726;49.148;8.582;2023-10-09T14:38:33;100735.50;;;24.63;42.65
24558;BME280;12726;49.148;8.582;2023-10-09T14:41:22;100729.25;;;24.57;43.23
24558;BME280;12726;49.148;8.582;2023-10-09T14:44:09;100731.31;;;24.46;43.82
24558;BME280;12726;49.148;8.582;2023-10-09T14:47:00;100725.00;;;24.46;43.94
24558;BME280;12726;49.148;8.582;2023-10-09T14:49:49;100725.34;;;24.39;44.79
24558;BME280;12726;49.148;8.582;2023-10-09T14:52:37;100721.28;;;24.55;44.05
24558;BME280;12726;49.148;8.582;2023-10-09T14:55:24;100727.44;;;24.47;45.27
24558;BME280;12726;49.148;8.582;2023-10-09T14:58:13;100721.94;;;24.47;45.11